createdAt,value
2022-08-11T00:00:36.484Z,75.11
2022-08-11T00:02:39.094Z,75.07
2022-08-11T00:04:39.407Z,74.71
2022-08-11T00:06:39.256Z,74.84
2022-08-11T00:08:38.675Z,74.61
2022-08-11T00:10:39.480Z,74.77
2022-08-11T00:12:37.947Z,74.96
2022-08-11T00:14:37.337Z,74.45
2022-08-11T00:16:36.527Z,74.36
2022-08-11T00:18:42.681Z,74.66
2022-08-11T00:20:45.291Z,74.92
2022-08-11T00:22:46.080Z,75.00
2022-08-11T00:24:53.663Z,74.85
2022-08-11T00:26:55.807Z,74.94
2022-08-11T00:28:54.603Z,75.23
2022-08-11T00:30:53.819Z,75.41
2022-08-11T00:32:58.789Z,75.36
2022-08-11T00:35:55.216Z,75.05
2022-08-11T00:37:21.776Z,75.09
2022-08-11T00:39:28.572Z,75.44
2022-08-11T00:41:35.680Z,75.74
2022-08-11T00:44:03.062Z,76.17
2022-08-11T00:46:15.365Z,76.84
2022-08-11T00:48:27.886Z,77.00
2022-08-11T00:50:38.938Z,77.04
2022-08-11T00:53:00.446Z,76.97
2022-08-11T00:55:34.046Z,76.84
2022-08-11T00:58:21.880Z,77.13
2022-08-11T01:00:23.297Z,77.18
2022-08-11T01:02:40.243Z,77.43
2022-08-11T01:05:16.937Z,77.57
2022-08-11T01:08:01.905Z,78.35
2022-08-11T01:10:15.214Z,78.52
2022-08-11T01:12:30.680Z,78.70
2022-08-11T01:15:21.777Z,79.00
2022-08-11T01:18:10.583Z,78.57
2022-08-11T01:20:46.241Z,78.18
2022-08-11T01:23:09.315Z,78.47
2022-08-11T01:26:02.695Z,78.77
2022-08-11T01:28:42.990Z,78.89
2022-08-11T01:31:26.016Z,78.86
2022-08-11T01:34:06.399Z,79.31
2022-08-11T01:36:34.335Z,79.27
2022-08-11T01:39:12.371Z,79.52
2022-08-11T01:42:01.802Z,79.74
2022-08-11T01:44:34.821Z,79.89
2022-08-11T01:46:37.291Z,79.75
2022-08-11T01:48:43.965Z,79.77
2022-08-11T01:50:55.146Z,79.71
2022-08-11T01:53:06.342Z,79.71
2022-08-11T01:55:13.903Z,80.25
2022-08-11T01:57:26.054Z,79.71
2022-08-11T01:59:28.810Z,79.73
2022-08-11T02:01:41.015Z,79.73
2022-08-11T02:03:51.376Z,80.13
2022-08-11T02:06:01.658Z,80.25
2022-08-11T02:08:11.857Z,80.12
2022-08-11T02:10:42.569Z,80.01
2022-08-11T02:12:54.283Z,79.91
2022-08-11T02:15:05.817Z,80.22
2022-08-11T02:17:16.650Z,81.11
2022-08-11T02:19:45.442Z,81.60
2022-08-11T02:22:20.129Z,81.55
2022-08-11T02:24:29.415Z,81.80
2022-08-11T02:26:36.632Z,81.10
2022-08-11T02:28:50.793Z,81.28
2022-08-11T02:32:14.841Z,80.91
2022-08-11T02:33:38.049Z,81.29
2022-08-11T02:35:47.965Z,81.40
2022-08-11T02:37:55.990Z,81.69
2022-08-11T02:40:11.890Z,82.63
2022-08-11T02:42:32.892Z,82.61
2022-08-11T02:44:43.227Z,82.90
2022-08-11T02:46:52.837Z,82.84
2022-08-11T02:49:35.660Z,82.80
2022-08-11T02:51:41.337Z,82.62
2022-08-11T02:53:56.381Z,82.97
2022-08-11T02:56:08.910Z,82.62
2022-08-11T02:58:16.431Z,82.90
2022-08-11T03:00:18.769Z,82.77
2022-08-11T03:02:41.335Z,82.86
2022-08-11T03:05:02.389Z,82.85
2022-08-11T03:07:28.855Z,82.69
2022-08-11T03:09:41.786Z,82.49
2022-08-11T03:12:24.752Z,82.90
2022-08-11T03:14:46.161Z,83.21
2022-08-11T03:16:53.015Z,83.01
2022-08-11T03:19:04.548Z,83.08
2022-08-11T03:21:11.447Z,83.17
2022-08-11T03:23:20.636Z,83.82
2022-08-11T03:25:31.757Z,83.65
2022-08-11T03:27:52.203Z,83.74
2022-08-11T03:30:06.515Z,83.66
2022-08-11T03:32:12.487Z,84.31
2022-08-11T03:34:15.985Z,84.16
2022-08-11T03:36:29.788Z,84.06
2022-08-11T03:38:46.782Z,84.07
2022-08-11T03:42:01.514Z,83.65
2022-08-11T03:43:58.770Z,83.33
2022-08-11T03:46:05.090Z,83.19
2022-08-11T03:48:15.455Z,83.04
2022-08-11T03:50:28.677Z,82.92
2022-08-11T03:52:39.435Z,82.50
2022-08-11T03:54:49.206Z,82.21
2022-08-11T03:57:37.003Z,79.66
2022-08-11T04:00:12.877Z,77.66
2022-08-11T04:02:30.165Z,74.87
2022-08-11T04:05:00.881Z,71.39
2022-08-11T04:07:43.088Z,69.18
2022-08-11T04:10:04.110Z,67.36
2022-08-11T04:12:36.751Z,66.86
2022-08-11T04:15:08.003Z,66.71
2022-08-11T04:17:33.151Z,66.23
2022-08-11T04:20:15.491Z,64.91
2022-08-11T04:22:54.378Z,64.04
2022-08-11T04:25:16.885Z,63.78
2022-08-11T04:28:05.409Z,63.77
2022-08-11T04:30:12.144Z,64.02
2022-08-11T04:32:30.010Z,63.19
2022-08-11T04:34:45.862Z,63.44
2022-08-11T04:37:30.823Z,63.09
2022-08-11T04:39:44.991Z,62.93
2022-08-11T04:42:53.564Z,61.98
2022-08-11T04:45:42.486Z,60.08
2022-08-11T04:48:33.394Z,58.10
2022-08-11T04:51:17.030Z,57.79
2022-08-11T04:53:53.321Z,56.49
2022-08-11T04:56:26.519Z,56.17
2022-08-11T04:59:02.799Z,56.15
2022-08-11T05:01:37.833Z,57.86
2022-08-11T05:04:31.851Z,58.49
2022-08-11T05:06:58.161Z,57.19
2022-08-11T05:09:24.142Z,56.98
2022-08-11T05:11:49.551Z,58.00
2022-08-11T05:14:08.660Z,59.99
2022-08-11T05:16:30.643Z,59.50
2022-08-11T05:18:48.506Z,60.81
2022-08-11T05:21:09.686Z,62.49
2022-08-11T05:23:29.018Z,61.35
2022-08-11T05:26:43.961Z,61.37
2022-08-11T05:28:30.174Z,60.73
2022-08-11T05:30:47.864Z,61.73
2022-08-11T05:33:14.390Z,61.68
2022-08-11T05:35:18.498Z,61.86
2022-08-11T05:37:39.899Z,61.96
2022-08-11T05:40:05.645Z,60.85
2022-08-11T05:42:30.384Z,60.74
2022-08-11T05:44:49.538Z,60.31
2022-08-11T05:47:06.727Z,60.05
2022-08-11T05:49:29.001Z,60.07
2022-08-11T05:51:55.138Z,60.24
2022-08-11T05:54:28.502Z,59.73
2022-08-11T05:56:28.438Z,60.31
2022-08-11T05:58:28.654Z,60.20
2022-08-11T06:00:28.670Z,59.85
2022-08-11T06:02:28.791Z,60.04
2022-08-11T06:04:30.784Z,59.38
2022-08-11T06:06:30.875Z,58.95
2022-08-11T06:08:31.436Z,58.01
2022-08-11T06:10:34.781Z,58.28
2022-08-11T06:12:37.675Z,58.27
2022-08-11T06:14:44.757Z,58.17
2022-08-11T06:16:44.843Z,57.22
2022-08-11T06:18:47.941Z,58.65
2022-08-11T06:20:54.248Z,59.68
2022-08-11T06:23:03.880Z,60.84
2022-08-11T06:25:03.886Z,60.59
2022-08-11T06:27:12.265Z,61.19
2022-08-11T06:29:16.105Z,60.91
2022-08-11T06:31:18.119Z,60.36
2022-08-11T06:33:20.257Z,60.16
2022-08-11T06:35:24.765Z,60.45
2022-08-11T06:37:36.666Z,60.29
2022-08-11T06:39:49.862Z,59.81
2022-08-11T06:41:53.382Z,59.28
2022-08-11T06:44:05.241Z,59.20
2022-08-11T06:46:09.731Z,59.27
2022-08-11T06:48:16.771Z,59.51
2022-08-11T06:50:37.186Z,59.88
2022-08-11T06:52:40.104Z,58.89
2022-08-11T06:54:41.834Z,57.33
2022-08-11T06:57:28.328Z,55.74
2022-08-11T06:59:37.210Z,54.85
2022-08-11T07:01:46.775Z,53.96
2022-08-11T07:03:49.718Z,54.12
2022-08-11T07:05:53.189Z,52.06
2022-08-11T07:08:44.344Z,51.54
2022-08-11T07:11:36.388Z,50.24
2022-08-11T07:14:12.763Z,51.01
2022-08-11T07:17:24.309Z,53.40
2022-08-11T07:20:36.158Z,53.84
2022-08-11T07:23:14.861Z,53.83
2022-08-11T07:25:43.455Z,54.31
2022-08-11T07:28:02.724Z,54.61
2022-08-11T07:30:03.879Z,53.80
2022-08-11T07:32:10.417Z,53.44
2022-08-11T07:34:21.512Z,52.20
2022-08-11T07:36:21.563Z,51.76
2022-08-11T07:38:43.453Z,50.71
2022-08-11T07:40:47.802Z,51.79
2022-08-11T07:43:05.547Z,50.96
2022-08-11T07:45:26.479Z,49.57
2022-08-11T07:47:43.289Z,48.11
2022-08-11T07:50:02.465Z,46.99
2022-08-11T07:52:18.474Z,44.55
2022-08-11T07:54:17.507Z,46.30
2022-08-11T07:56:21.857Z,43.53
2022-08-11T07:59:04.302Z,43.47
2022-08-11T08:01:24.974Z,43.82
2022-08-11T08:03:54.723Z,43.04
2022-08-11T08:06:22.234Z,43.06
2022-08-11T08:08:47.426Z,42.56
2022-08-11T08:11:03.247Z,43.02
2022-08-11T08:13:20.744Z,45.36
2022-08-11T08:15:38.593Z,42.57
2022-08-11T08:18:20.825Z,44.61
2022-08-11T08:20:17.534Z,44.42
2022-08-11T08:22:37.877Z,44.80
2022-08-11T08:24:36.746Z,43.33
2022-08-11T08:26:53.074Z,42.01
2022-08-11T08:28:53.535Z,42.51
2022-08-11T08:30:52.621Z,43.88
2022-08-11T08:32:52.800Z,44.96
2022-08-11T08:34:52.050Z,44.44
2022-08-11T08:36:52.762Z,43.85
2022-08-11T08:38:54.212Z,44.83
2022-08-11T08:40:55.914Z,41.62
2022-08-11T08:42:57.906Z,41.53
2022-08-11T08:45:03.472Z,39.21
2022-08-11T08:47:07.220Z,39.91
2022-08-11T08:49:06.914Z,39.57
2022-08-11T08:51:28.841Z,36.60
2022-08-11T08:53:53.301Z,35.34
2022-08-11T08:55:59.572Z,34.52
2022-08-11T08:58:00.758Z,35.14
2022-08-11T09:00:02.506Z,34.59
2022-08-11T09:02:06.462Z,35.45
2022-08-11T09:04:11.786Z,31.95
2022-08-11T09:06:12.838Z,32.76
2022-08-11T09:08:12.101Z,33.78
2022-08-11T09:10:11.968Z,34.30
2022-08-11T09:12:11.258Z,33.33
2022-08-11T09:14:14.815Z,33.83
2022-08-11T09:16:18.131Z,31.77
2022-08-11T09:18:19.465Z,31.61
2022-08-11T09:20:20.865Z,31.32
2022-08-11T09:22:38.943Z,30.52
2022-08-11T09:25:02.614Z,31.21
2022-08-11T09:27:07.496Z,31.18
2022-08-11T09:29:06.719Z,30.42
2022-08-11T09:31:07.682Z,30.46
2022-08-11T09:33:08.457Z,31.11
2022-08-11T09:35:11.313Z,29.71
2022-08-11T09:37:55.253Z,28.79
2022-08-11T09:40:05.231Z,29.09
2022-08-11T09:42:05.641Z,31.79
2022-08-11T09:44:22.316Z,32.85
2022-08-11T09:46:28.709Z,33.98
2022-08-11T09:48:31.532Z,32.44
2022-08-11T09:50:30.265Z,31.47
2022-08-11T09:52:33.529Z,30.38
2022-08-11T09:54:32.029Z,29.65
2022-08-11T09:57:05.384Z,28.71
2022-08-11T09:59:04.536Z,28.50
2022-08-11T10:01:05.451Z,28.05
2022-08-11T10:03:07.437Z,28.55
2022-08-11T10:05:27.076Z,28.40
2022-08-11T10:07:27.036Z,27.96
2022-08-11T10:09:26.954Z,27.23
2022-08-11T10:11:26.371Z,27.45
2022-08-11T10:14:04.837Z,27.55
2022-08-11T10:16:00.199Z,27.66
2022-08-11T10:18:35.220Z,27.87
2022-08-11T10:20:38.371Z,26.42
2022-08-11T10:22:54.664Z,26.57
2022-08-11T10:25:11.630Z,26.87
2022-08-11T10:27:10.178Z,27.95
2022-08-11T10:29:26.202Z,28.27
2022-08-11T10:31:57.676Z,29.48
2022-08-11T10:34:03.483Z,29.88
2022-08-11T10:36:15.914Z,29.45
2022-08-11T10:38:15.936Z,28.73
2022-08-11T10:40:17.487Z,29.43
2022-08-11T10:42:55.277Z,30.04
2022-08-11T10:44:54.561Z,28.99
2022-08-11T10:47:11.625Z,28.88
2022-08-11T10:49:11.080Z,28.32
2022-08-11T10:51:42.800Z,27.90
2022-08-11T10:53:54.707Z,28.63
2022-08-11T10:56:10.443Z,28.44
2022-08-11T10:58:27.515Z,29.45
2022-08-11T11:00:26.005Z,31.69
2022-08-11T11:02:27.457Z,32.45
2022-08-11T11:04:34.243Z,32.68
2022-08-11T11:06:45.050Z,34.40
2022-08-11T11:08:55.539Z,35.74
2022-08-11T11:11:00.120Z,36.59
2022-08-11T11:13:17.817Z,37.88
2022-08-11T11:15:37.270Z,36.58
2022-08-11T11:18:01.749Z,36.69
2022-08-11T11:20:01.921Z,38.93
2022-08-11T11:22:22.155Z,38.01
2022-08-11T11:24:37.693Z,37.25
2022-08-11T11:26:42.473Z,37.17
2022-08-11T11:29:06.948Z,35.57
2022-08-11T11:31:15.610Z,37.16
2022-08-11T11:33:22.360Z,37.75
2022-08-11T11:35:36.712Z,37.13
2022-08-11T11:37:38.147Z,37.55
2022-08-11T11:39:37.847Z,36.99
2022-08-11T11:41:37.285Z,36.08
2022-08-11T11:43:37.709Z,37.74
2022-08-11T11:45:36.507Z,36.99
2022-08-11T11:47:37.066Z,37.64
2022-08-11T11:49:39.645Z,38.96
2022-08-11T11:51:38.849Z,38.49
2022-08-11T11:53:38.657Z,38.25
2022-08-11T11:55:38.156Z,38.22
2022-08-11T11:57:58.642Z,38.43
2022-08-11T12:00:16.109Z,37.39
2022-08-11T12:02:16.251Z,37.52
2022-08-11T12:04:16.652Z,39.35
2022-08-11T12:06:15.703Z,40.32
2022-08-11T12:08:15.411Z,40.53
2022-08-11T12:10:16.105Z,41.51
2022-08-11T12:12:32.286Z,42.07
2022-08-11T12:14:32.090Z,42.49
2022-08-11T12:16:36.134Z,43.14
2022-08-11T12:18:36.422Z,43.84
2022-08-11T12:20:35.295Z,44.06
2022-08-11T12:22:51.278Z,44.47
2022-08-11T12:25:07.849Z,45.33
2022-08-11T12:27:27.993Z,45.19
2022-08-11T12:29:28.772Z,45.22
2022-08-11T12:31:27.496Z,45.11
2022-08-11T12:33:25.964Z,45.13
2022-08-11T12:35:24.505Z,45.29
2022-08-11T12:37:30.414Z,45.70
2022-08-11T12:40:15.623Z,44.78
2022-08-11T12:42:30.766Z,44.92
2022-08-11T12:45:01.408Z,45.00
2022-08-11T12:47:02.823Z,46.81
2022-08-11T12:49:24.193Z,48.10
2022-08-11T12:52:11.693Z,49.11
2022-08-11T12:54:10.252Z,49.53
2022-08-11T12:56:26.870Z,48.34
2022-08-11T12:58:26.802Z,48.56
2022-08-11T13:00:45.494Z,48.66
2022-08-11T13:03:01.425Z,48.62
2022-08-11T13:05:00.446Z,49.20
2022-08-11T13:06:58.811Z,48.90
2022-08-11T13:09:01.412Z,49.01
2022-08-11T13:11:19.438Z,49.39
2022-08-11T13:13:54.454Z,49.49
2022-08-11T13:15:39.872Z,49.44
2022-08-11T13:17:40.478Z,49.75
2022-08-11T13:19:49.646Z,48.97
2022-08-11T13:21:48.944Z,48.15
2022-08-11T13:23:59.488Z,48.35
2022-08-11T13:26:02.769Z,48.29
2022-08-11T13:28:03.244Z,47.75
2022-08-11T13:30:19.850Z,48.30
2022-08-11T13:32:26.351Z,48.87
2022-08-11T13:34:27.026Z,48.38
2022-08-11T13:36:28.598Z,47.68
2022-08-11T13:38:27.824Z,47.67
2022-08-11T13:40:45.851Z,46.79
2022-08-11T13:42:46.020Z,45.48
2022-08-11T13:44:45.188Z,45.22
2022-08-11T13:46:44.784Z,44.90
2022-08-11T13:48:44.787Z,44.67
2022-08-11T13:51:00.917Z,43.85
2022-08-11T13:52:59.459Z,43.75
2022-08-11T13:54:58.591Z,43.75
2022-08-11T13:57:01.667Z,43.79
2022-08-11T13:59:02.419Z,44.34
2022-08-11T14:01:11.288Z,44.25
2022-08-11T14:03:24.719Z,44.32
2022-08-11T14:05:29.638Z,43.06
2022-08-11T14:07:35.874Z,43.42
2022-08-11T14:09:38.074Z,43.08
2022-08-11T14:12:22.437Z,42.91
2022-08-11T14:14:22.209Z,44.03
2022-08-11T14:16:28.429Z,44.40
2022-08-11T14:18:31.657Z,44.50
2022-08-11T14:20:54.100Z,44.86
2022-08-11T14:22:52.979Z,45.01
2022-08-11T14:24:51.518Z,44.94
2022-08-11T14:26:51.424Z,45.23
2022-08-11T14:28:51.016Z,45.47
2022-08-11T14:31:01.450Z,45.15
2022-08-11T14:33:00.644Z,45.47
2022-08-11T14:35:15.146Z,46.35
2022-08-11T14:37:19.990Z,46.53
2022-08-11T14:39:20.847Z,47.07
2022-08-11T14:41:37.493Z,47.07
2022-08-11T14:44:15.562Z,46.70
2022-08-11T14:48:38.048Z,46.08
2022-08-11T14:50:37.108Z,45.70
2022-08-11T14:52:37.526Z,45.56
2022-08-11T14:54:54.876Z,45.64
2022-08-11T14:56:56.786Z,44.97
2022-08-11T14:58:58.283Z,45.02
2022-08-11T15:00:59.418Z,45.51
2022-08-11T15:03:13.473Z,46.35
2022-08-11T15:05:12.785Z,46.11
2022-08-11T15:07:16.763Z,46.24
2022-08-11T15:09:18.257Z,45.95
2022-08-11T15:11:39.492Z,45.86
2022-08-11T15:13:39.093Z,46.67
2022-08-11T15:15:55.652Z,46.82
2022-08-11T15:17:55.844Z,46.92
2022-08-11T15:20:13.530Z,46.95
2022-08-11T15:22:29.524Z,47.01
2022-08-11T15:24:31.039Z,46.84
2022-08-11T15:26:52.078Z,47.04
2022-08-11T15:29:11.179Z,46.91
2022-08-11T15:31:38.600Z,46.45
2022-08-11T15:33:57.351Z,46.04
2022-08-11T15:36:15.558Z,46.35
2022-08-11T15:38:16.613Z,46.45
2022-08-11T15:40:37.325Z,46.44
2022-08-11T15:43:07.100Z,46.62
2022-08-11T15:45:29.656Z,46.66
2022-08-11T15:47:35.991Z,46.60
2022-08-11T15:50:10.760Z,46.74
2022-08-11T15:52:02.846Z,46.73
2022-08-11T15:54:09.372Z,46.09
2022-08-11T15:56:11.697Z,46.11
2022-08-11T15:58:30.070Z,46.53
2022-08-11T16:00:47.530Z,46.43
2022-08-11T16:03:04.870Z,46.39
2022-08-11T16:05:09.547Z,46.46
2022-08-11T16:11:12.758Z,46.33
2022-08-11T16:13:31.596Z,45.96
2022-08-11T16:15:48.814Z,46.15
2022-08-11T16:17:50.105Z,45.94
2022-08-11T16:19:52.364Z,45.81
2022-08-11T16:21:53.984Z,46.14
2022-08-11T16:23:54.586Z,45.93
2022-08-11T16:27:02.421Z,46.25
2022-08-11T16:28:17.205Z,46.24
2022-08-11T16:30:15.955Z,46.30
2022-08-11T16:32:20.732Z,45.92
2022-08-11T16:34:32.831Z,46.09
2022-08-11T16:36:49.965Z,45.99
2022-08-11T16:38:50.602Z,46.42
2022-08-11T16:40:52.248Z,46.36
2022-08-11T16:43:10.628Z,46.06
2022-08-11T16:45:29.490Z,46.10
2022-08-11T16:48:03.380Z,46.21
2022-08-11T16:49:52.610Z,46.70
2022-08-11T16:51:51.860Z,46.75
2022-08-11T16:54:04.473Z,46.71
2022-08-11T16:56:09.152Z,46.81
2022-08-11T16:58:26.702Z,46.80
2022-08-11T17:00:29.971Z,46.87
2022-08-11T17:02:51.514Z,47.03
2022-08-11T17:05:12.576Z,47.22
2022-08-11T17:07:42.092Z,47.22
2022-08-11T17:09:58.714Z,46.94
2022-08-11T17:12:16.797Z,47.21
2022-08-11T17:14:18.623Z,47.29
2022-08-11T17:16:40.150Z,47.75
2022-08-11T17:18:45.511Z,48.07
2022-08-11T17:20:44.374Z,47.93
2022-08-11T17:23:15.643Z,48.08
2022-08-11T17:25:17.144Z,48.06
2022-08-11T17:27:17.966Z,48.05
2022-08-11T17:29:16.527Z,48.35
2022-08-11T17:31:33.923Z,48.06
2022-08-11T17:33:52.993Z,48.31
2022-08-11T17:35:51.625Z,48.43
2022-08-11T17:37:51.455Z,48.43
2022-08-11T17:39:51.831Z,48.23
2022-08-11T17:42:09.261Z,48.62
2022-08-11T17:44:28.294Z,48.55
2022-08-11T17:47:05.154Z,48.46
2022-08-11T17:49:08.790Z,48.67
2022-08-11T17:51:13.168Z,48.70
2022-08-11T17:53:31.288Z,48.53
2022-08-11T17:55:52.040Z,48.66
2022-08-11T17:58:09.731Z,48.90
2022-08-11T18:00:10.199Z,48.79
2022-08-11T18:02:34.937Z,49.13
2022-08-11T18:04:35.374Z,48.89
2022-08-11T18:06:36.186Z,48.76
2022-08-11T18:08:56.709Z,49.07
2022-08-11T18:11:17.479Z,49.25
2022-08-11T18:13:53.261Z,48.86
2022-08-11T18:16:09.839Z,49.09
2022-08-11T18:18:25.725Z,49.26
2022-08-11T18:20:45.084Z,49.11
2022-08-11T18:23:06.188Z,49.02
2022-08-11T18:25:27.322Z,49.07
2022-08-11T18:27:46.367Z,49.31
2022-08-11T18:30:04.362Z,49.26
2022-08-11T18:32:27.150Z,49.69
2022-08-11T18:34:53.609Z,49.56
2022-08-11T18:37:24.817Z,49.06
2022-08-11T18:39:46.086Z,49.29
2022-08-11T18:42:13.092Z,49.67
2022-08-11T18:44:48.913Z,49.84
2022-08-11T18:47:08.594Z,50.00
2022-08-11T18:50:02.619Z,50.40
2022-08-11T18:52:12.355Z,50.47
2022-08-11T18:54:30.303Z,50.45
2022-08-11T18:56:51.788Z,50.17
2022-08-11T18:59:08.942Z,50.47
2022-08-11T19:01:28.600Z,50.70
2022-08-11T19:03:49.286Z,50.86
2022-08-11T19:06:38.233Z,51.15
2022-08-11T19:08:47.025Z,51.17
2022-08-11T19:11:04.481Z,51.45
2022-08-11T19:13:21.006Z,51.56
2022-08-11T19:15:38.205Z,51.70
2022-08-11T19:17:57.187Z,51.79
2022-08-11T19:20:13.951Z,51.66
2022-08-11T19:22:29.866Z,51.85
2022-08-11T19:24:49.630Z,51.96
2022-08-11T19:27:06.964Z,51.70
2022-08-11T19:30:07.056Z,52.16
2022-08-11T19:32:01.633Z,52.04
2022-08-11T19:34:18.946Z,52.08
2022-08-11T19:36:35.486Z,51.88
2022-08-11T19:38:53.382Z,51.74
2022-08-11T19:41:12.575Z,52.16
2022-08-11T19:43:31.602Z,52.44
2022-08-11T19:45:52.710Z,52.70
2022-08-11T19:48:32.685Z,52.59
2022-08-11T19:50:46.530Z,52.66
2022-08-11T19:53:02.967Z,52.65
2022-08-11T19:55:34.977Z,52.56
2022-08-11T19:57:55.087Z,52.71
2022-08-11T20:00:11.691Z,52.35
2022-08-11T20:02:28.216Z,52.58
2022-08-11T20:04:44.154Z,52.97
2022-08-11T20:07:02.324Z,52.73
2022-08-11T20:09:20.280Z,53.30
2022-08-11T20:11:36.851Z,53.41
2022-08-11T20:13:56.155Z,53.05
2022-08-11T20:16:13.545Z,52.63
2022-08-11T20:18:32.428Z,52.64
2022-08-11T20:20:50.070Z,52.63
2022-08-11T20:23:08.258Z,52.85
2022-08-11T20:25:25.722Z,52.92
2022-08-11T20:27:42.465Z,53.12
2022-08-11T20:30:00.091Z,53.40
2022-08-11T20:32:16.056Z,53.75
2022-08-11T20:34:34.613Z,53.49
2022-08-11T20:36:54.061Z,53.47
2022-08-11T20:39:11.493Z,53.36
2022-08-11T20:41:30.613Z,53.40
2022-08-11T20:44:06.362Z,53.17
2022-08-11T20:46:26.406Z,53.52
2022-08-11T20:48:43.291Z,53.81
2022-08-11T20:51:06.042Z,54.25
2022-08-11T20:53:23.653Z,54.16
2022-08-11T20:55:46.172Z,54.67
2022-08-11T20:58:11.220Z,55.17
2022-08-11T21:00:38.947Z,55.17
2022-08-11T21:02:58.043Z,55.17
2022-08-11T21:07:55.296Z,55.33
2022-08-11T21:10:18.701Z,55.57
2022-08-11T21:12:39.181Z,55.87
2022-08-11T21:14:59.004Z,55.73
2022-08-11T21:17:27.250Z,55.83
2022-08-11T21:20:01.377Z,56.01
2022-08-11T21:22:28.132Z,56.81
2022-08-11T21:24:47.143Z,57.02
2022-08-11T21:27:08.265Z,57.70
2022-08-11T21:29:32.889Z,58.25
2022-08-11T21:31:51.358Z,58.79
2022-08-11T21:34:08.465Z,59.25
2022-08-11T21:36:29.445Z,59.49
2022-08-11T21:38:46.576Z,59.70
2022-08-11T21:41:04.925Z,59.54
2022-08-11T21:43:21.908Z,60.00
2022-08-11T21:45:39.552Z,60.68
2022-08-11T21:48:01.046Z,60.65
2022-08-11T21:50:17.568Z,61.22
2022-08-11T21:52:35.038Z,61.27
2022-08-11T21:54:51.008Z,61.61
2022-08-11T21:57:07.588Z,61.42
2022-08-11T21:59:24.623Z,61.88
2022-08-11T22:01:41.012Z,62.15
2022-08-11T22:03:58.184Z,62.00
2022-08-11T22:06:14.631Z,61.97
2022-08-11T22:08:32.192Z,62.25
2022-08-11T22:10:48.204Z,62.40
2022-08-11T22:13:04.096Z,62.48
2022-08-11T22:15:20.054Z,62.35
2022-08-11T22:17:35.318Z,62.48
2022-08-11T22:19:52.797Z,62.88
2022-08-11T22:22:08.699Z,62.93
2022-08-11T22:24:29.931Z,62.60
2022-08-11T22:26:47.620Z,62.77
2022-08-11T22:29:03.347Z,62.34
2022-08-11T22:31:20.276Z,62.44
2022-08-11T22:33:37.700Z,62.37
2022-08-11T22:36:06.686Z,62.23
2022-08-11T22:38:23.124Z,62.13
2022-08-11T22:40:40.653Z,61.83
2022-08-11T22:42:58.234Z,61.98
2022-08-11T22:45:13.912Z,62.09
2022-08-11T22:47:40.445Z,62.13
2022-08-11T22:49:58.640Z,61.84
2022-08-11T22:52:16.660Z,62.74
2022-08-11T22:54:33.122Z,62.39
2022-08-11T22:56:51.550Z,62.51
2022-08-11T22:59:08.068Z,62.63
2022-08-11T23:01:24.527Z,62.21
2022-08-11T23:03:40.650Z,62.39
2022-08-11T23:05:57.339Z,62.47
2022-08-11T23:08:14.437Z,62.30
2022-08-11T23:10:30.486Z,62.17
2022-08-11T23:12:47.752Z,62.70
2022-08-11T23:15:04.358Z,62.80
2022-08-11T23:17:20.666Z,62.97
2022-08-11T23:20:07.836Z,62.93
2022-08-11T23:22:13.666Z,62.71
2022-08-11T23:24:29.711Z,62.79
2022-08-11T23:26:48.089Z,62.88
2022-08-11T23:29:06.264Z,62.40
2022-08-11T23:31:22.462Z,62.75
2022-08-11T23:33:41.068Z,62.82
2022-08-11T23:36:04.449Z,62.71
2022-08-11T23:38:20.939Z,62.63
2022-08-11T23:40:36.915Z,63.05
2022-08-11T23:42:56.550Z,62.86
2022-08-11T23:45:14.023Z,63.19
2022-08-11T23:47:30.022Z,63.21
2022-08-11T23:49:46.803Z,63.30
2022-08-11T23:52:02.854Z,63.07
2022-08-11T23:54:19.657Z,63.38
2022-08-11T23:56:35.709Z,63.85
2022-08-11T23:58:53.122Z,64.02
